Crescent City, CA

10:01 AM PDT on October 25, 2014 (GMT -0700)
KCACRESC8 | Change Station
CLOSE
Current Station
Personal Weather Station
Location: Crescent City, CA
Elevation: 59 ft
Nearby Weather Stations
Active Advisory: High Wind Warning

Elev 59 ft 41.76 °N, 124.21 °W | Updated 3 seconds ago

Rain
Rain
59.7 °F
Feels Like 59.7 °F
N
0.0
Wind Variable Wind from SE
Gusts 0.0 mph

Today
High -- | Low -- °F
--% Chance of Precip.
Yesterday
High -- | Low -- °F
Precip. -- in
7:40 AM 6:20 PM
Waxing Crescent, 3% visible
Pressure 29.61 in
Visibility 5.0 miles
Clouds Scattered Clouds 1500 ft
Mostly Cloudy 2300 ft
Overcast 2800 ft
Dew Point 60 °F
Humidity 99%
Rainfall 0.18 in
Snow Depth Not available.
UV 1 out of 12
Pollen .40 out of 12
Air Quality Not available.
Flu Activity Sporadic
METAR KCEC 251656Z AUTO 17025G36KT 5SM -RA BR SCT015 BKN023 OVC028 15/14 A2961 RMK AO2 PK WND 18041/1627 SLP025 P0009 T01500144

More Conditions Fewer Conditions

Pressure 29.61 in
Visibility 5.0 miles
Clouds Scattered Clouds 1500 ft
Mostly Cloudy 2300 ft
Overcast 2800 ft
Dew Point 60 °F
Humidity 99%
Rainfall 0.18 in
Snow Depth Not available.
UV 1 out of 12
Pollen .40 out of 12
Air Quality Not available.
Flu Activity Sporadic
METAR KCEC 251656Z AUTO 17025G36KT 5SM -RA BR SCT015 BKN023 OVC028 15/14 A2961 RMK AO2 PK WND 18041/1627 SLP025 P0009 T01500144

More Conditions Fewer Conditions

Nowcast | as of 9:09 am PDT on October 25, 2014

Showers are moving on the north coast. This may increase wind gusts to 50 mph as these showers move onshore.

×

10-Day Weather Forecast

Almanac

Astronomy

Oct. 25, 2014 Rise Set
Actual Time 7:40 AM PDT 6:20 PM PDT
Civil Twilight 7:12 AM PDT 6:48 PM PDT
Nautical Twilight 6:39 AM PDT 7:21 PM PDT
Astronomical Twilight 6:07 AM PDT 7:53 PM PDT
Moon 9:26 AM PDT 7:46 PM PDT
Length of Visible Light 11h 36m
Length of Day
10h 39m
Tomorrow will be 2m 35s shorter.
Waxing Crescent, 3% of the Moon is Illuminated
Today
Waxing Crescent
Oct 30
First Quarter
Nov 6
Full
Nov 14
Last Quarter
Nov 22
New

Today's Extremes

State Highs State Lows

Community

WunderPhotos

Upload Photos

1,764,909 photos uploaded!

Nearby

Snow Depth

Station Depth Elevation
Adin Mountain 0 in 6200 ft
Independence Lake 0 in 8450 ft
Independence Camp 0 in 7000 ft
CSS Lab 1 in 6900 ft
Truckee #2 0 in 6400 ft

Earthquake Activity

City Distance Mag. Time & Date
No recent earthquake activity has been reported nearby.
Minimum magnitude displayed is 2.5.

Coastal Water Temperatures

Place Temperature
Crescent City, CA 60.1 °F
North Spit, CA 57.9 °F
Port Orford, OR 59.0 °F

Nearby Weather Stations